Time;durP1;ratioP1;P1;durP2;ratioP2;P2;SDS_P1;SDS_P2;PMS_P1;PMS_P2;Temp;Humidity;BMP_temperature;BMP_pressure;BME280_temperature;BME280_humidity;BME280_pressure;Samples;Min_cycle;Max_cycle;Signal;HPM_P1;HPM_P2
2022/11/26 00:00:26;;;;;;;;;24.00;20.67;;;;;10.26;71.28;102356.09;4997392;28;45401;-72
2022/11/26 00:02:52;;;;;;;;;34.00;29.33;;;;;10.26;71.30;102367.56;4997943;28;45423;-70
2022/11/26 00:05:18;;;;;;;;;28.33;24.33;;;;;10.20;71.51;102356.44;4997380;28;45847;-72
2022/11/26 00:07:54;;;;;;;;;26.00;26.00;;;;;10.40;71.34;102417.13;4997239;28;45552;-69
2022/11/26 00:10:26;;;;;;;;;33.00;30.00;;;;;10.36;71.64;102394.38;4997489;28;45406;-73
2022/11/26 00:12:51;;;;;;;;;24.33;23.00;;;;;10.24;71.68;102389.91;5000677;28;45441;-72
2022/11/26 00:15:21;;;;;;;;;28.00;25.67;;;;;10.28;71.83;102404.69;5000376;28;45979;-72
2022/11/26 00:17:48;;;;;;;;;23.33;22.00;;;;;9.77;71.95;102319.41;5000414;28;45494;-70
2022/11/26 00:20:14;;;;;;;;;31.67;26.33;;;;;10.26;71.49;102403.94;5000653;28;45230;-72
2022/11/26 00:22:44;;;;;;;;;25.33;22.67;;;;;10.27;71.74;102417.13;5000698;28;45317;-73
2022/11/26 00:25:14;;;;;;;;;25.33;22.33;;;;;9.95;72.00;102366.03;5000351;28;45471;-72
2022/11/26 00:27:40;;;;;;;;;26.67;24.67;;;;;10.17;71.08;102412.47;5000708;28;45299;-73
2022/11/26 00:30:14;;;;;;;;;20.67;19.00;;;;;10.11;71.59;102394.28;5000724;28;45358;-71
2022/11/26 00:32:39;;;;;;;;;27.00;23.00;;;;;10.03;71.56;102384.16;4999394;28;45215;-72
2022/11/26 00:35:05;;;;;;;;;20.00;20.00;;;;;10.18;71.63;102408.84;4999982;28;45753;-69
2022/11/26 00:37:37;;;;;;;;;19.67;16.67;;;;;10.19;71.73;102429.16;5000255;28;45261;-71
2022/11/26 00:40:03;;;;;;;;;22.33;21.00;;;;;10.14;71.73;102400.22;4982486;28;45310;-71
2022/11/26 00:42:29;;;;;;;;;25.00;23.00;;;;;9.83;71.67;102350.91;4998903;28;45415;-71
2022/11/26 00:44:54;;;;;;;;;20.00;14.00;;;;;10.11;71.75;102400.44;4999606;28;56495;-70
2022/11/26 00:47:19;;;;;;;;;21.33;20.00;;;;;9.49;71.81;102304.44;5000362;28;45479;-71
2022/11/26 00:49:45;;;;;;;;;22.00;20.33;;;;;9.90;71.62;102373.47;4999537;28;53857;-71
2022/11/26 00:52:32;;;;;;;;;19.33;19.33;;;;;9.76;72.06;102352.25;5000256;28;48551;-71
2022/11/26 00:54:58;;;;;;;;;23.67;17.67;;;;;9.94;71.82;102380.28;4999953;28;45832;-71
2022/11/26 00:57:23;;;;;;;;;20.33;18.67;;;;;9.76;71.55;102369.03;4999811;28;45292;-70
2022/11/26 00:59:49;;;;;;;;;23.33;23.00;;;;;9.21;71.94;102256.72;4999841;28;45457;-71
2022/11/26 01:02:14;;;;;;;;;22.00;20.33;;;;;10.18;71.78;102444.25;5000051;28;45462;-71
2022/11/26 01:04:39;;;;;;;;;21.33;17.00;;;;;9.14;71.52;102246.50;4999586;28;46523;-70
2022/11/26 01:07:05;;;;;;;;;25.33;19.00;;;;;10.17;71.87;102431.06;4982095;28;45502;-73
2022/11/26 01:09:30;;;;;;;;;23.33;20.67;;;;;10.15;71.58;102443.59;5000060;28;45341;-69
2022/11/26 01:11:56;;;;;;;;;23.67;19.67;;;;;10.12;71.27;102428.72;4981861;28;45390;-70
2022/11/26 01:14:23;;;;;;;;;31.00;24.67;;;;;10.13;71.49;102440.19;4999642;28;46072;-71
2022/11/26 01:16:55;;;;;;;;;20.00;20.00;;;;;10.12;71.90;102438.50;4982079;28;45575;-72
2022/11/26 01:19:21;;;;;;;;;24.00;19.00;;;;;9.85;71.56;102404.78;4981716;28;45563;-71
2022/11/26 01:21:46;;;;;;;;;19.00;18.00;;;;;10.03;71.81;102429.31;4981678;28;45349;-72
2022/11/26 01:24:11;;;;;;;;;28.00;24.00;;;;;10.01;72.24;102433.84;4999601;28;46737;-70
2022/11/26 01:26:43;;;;;;;;;23.00;21.33;;;;;10.04;72.07;102436.34;4981628;28;45379;-71
2022/11/26 01:29:16;;;;;;;;;18.67;16.67;;;;;9.92;71.96;102431.81;4999484;28;45923;-71
2022/11/26 01:31:41;;;;;;;;;26.33;22.00;;;;;9.96;72.67;102433.31;4999690;28;45510;-72
2022/11/26 01:34:06;;;;;;;;;26.67;23.33;;;;;9.77;72.62;102417.69;4999165;28;45569;-71
2022/11/26 01:36:37;;;;;;;;;18.33;18.00;;;;;9.89;72.73;102464.75;4998076;28;46299;-71
2022/11/26 01:39:05;;;;;;;;;19.67;19.67;;;;;9.90;72.29;102436.38;4999243;28;45282;-71
2022/11/26 01:41:44;;;;;;;;;24.00;20.00;;;;;9.91;72.35;102432.75;4999372;28;45262;-72
2022/11/26 01:44:29;;;;;;;;;23.00;19.33;;;;;9.87;72.17;102429.44;4998936;28;46933;-72
2022/11/26 01:46:54;;;;;;;;;25.00;21.67;;;;;9.31;72.33;102337.47;4998931;28;45480;-70
2022/11/26 01:49:21;;;;;;;;;16.00;15.33;;;;;9.91;72.13;102425.66;4999140;28;45554;-72
2022/11/26 01:51:56;;;;;;;;;23.67;20.00;;;;;9.84;72.27;102419.03;4998270;28;45571;-71
2022/11/26 01:54:22;;;;;;;;;17.33;16.33;;;;;9.78;72.37;102403.47;4999154;28;46483;-71
2022/11/26 01:56:51;;;;;;;;;23.00;20.33;;;;;9.86;72.32;102425.09;4998979;28;45472;-69
2022/11/26 01:59:23;;;;;;;;;25.33;25.00;;;;;9.89;72.43;102440.84;4999151;28;45261;-72
2022/11/26 02:01:51;;;;;;;;;19.00;19.00;;;;;9.64;72.63;102411.47;4999007;28;45235;-69
2022/11/26 02:04:22;;;;;;;;;29.67;24.67;;;;;9.76;72.28;102421.31;4998636;28;47097;-69
2022/11/26 02:06:50;;;;;;;;;29.00;27.00;;;;;9.47;72.27;102378.03;4998831;28;45460;-72
2022/11/26 02:09:16;;;;;;;;;25.33;20.33;;;;;9.66;72.31;102409.56;4998886;28;45505;-71
2022/11/26 02:11:42;;;;;;;;;17.33;16.33;;;;;9.80;72.29;102432.56;4998843;28;45279;-71
2022/11/26 02:14:16;;;;;;;;;26.33;23.00;;;;;9.92;72.21;102429.16;4998587;28;45432;-72
2022/11/26 02:17:05;;;;;;;;;23.67;21.67;;;;;9.91;71.85;102430.97;4997466;28;45355;-71
2022/11/26 02:19:54;;;;;;;;;26.00;23.67;;;;;9.90;71.82;102437.22;4998717;28;45401;-70
2022/11/26 02:22:32;;;;;;;;;25.67;24.00;;;;;9.88;71.97;102435.63;4998765;28;45534;-72
2022/11/26 02:25:18;;;;;;;;;25.00;23.00;;;;;9.75;71.93;102416.94;4998552;28;45545;-71
2022/11/26 02:28:25;;;;;;;;;26.00;20.67;;;;;9.77;72.19;102429.16;4998675;28;45351;-71
2022/11/26 02:31:01;;;;;;;;;20.33;18.67;;;;;9.71;72.83;102431.38;4998698;28;45614;-70
2022/11/26 02:33:39;;;;;;;;;27.67;19.33;;;;;9.67;72.42;102425.41;4998032;28;45668;-71
2022/11/26 02:36:22;;;;;;;;;19.33;17.67;;;;;8.64;72.78;102249.69;4998198;28;46067;-71
2022/11/26 02:38:49;;;;;;;;;24.00;19.67;;;;;9.62;72.93;102434.63;4998186;28;45300;-71
2022/11/26 02:41:14;;;;;;;;;22.00;18.67;;;;;9.57;72.50;102426.06;4998386;28;45353;-70
2022/11/26 02:43:39;;;;;;;;;17.00;17.00;;;;;9.60;72.65;102441.81;4998563;28;45223;-71
2022/11/26 02:46:11;;;;;;;;;17.00;15.33;;;;;9.32;72.44;102382.47;4998094;28;46085;-71
2022/11/26 02:48:41;;;;;;;;;16.00;16.00;;;;;9.55;72.55;102430.63;4998140;28;45353;-71
2022/11/26 02:51:12;;;;;;;;;26.33;22.67;;;;;9.09;72.22;102351.22;4998494;28;45278;-72
2022/11/26 02:53:39;;;;;;;;;16.33;14.33;;;;;9.02;72.31;102336.66;4998224;28;45476;-71
2022/11/26 02:56:08;;;;;;;;;27.67;24.00;;;;;9.65;72.68;102445.06;4980218;28;47512;-70
2022/11/26 02:58:34;;;;;;;;;21.33;19.00;;;;;9.34;72.08;102380.59;4997868;28;45479;-70
2022/11/26 03:01:08;;;;;;;;;21.33;19.33;;;;;9.57;71.99;102431.38;4998178;28;45501;-71
2022/11/26 03:03:39;;;;;;;;;23.67;21.33;;;;;9.52;72.00;102434.34;4998034;28;45323;-71
2022/11/26 03:06:08;;;;;;;;;23.00;20.00;;;;;9.30;72.05;102394.16;4996153;28;47730;-70
2022/11/26 03:08:35;;;;;;;;;25.67;18.33;;;;;9.45;72.53;102417.09;4997692;28;45365;-70
2022/11/26 03:11:00;;;;;;;;;22.67;21.67;;;;;9.52;72.06;102433.47;4979943;28;45322;-70
2022/11/26 03:13:25;;;;;;;;;18.67;15.00;;;;;9.34;72.25;102416.88;4996455;28;45328;-71
2022/11/26 03:15:51;;;;;;;;;21.00;17.00;;;;;8.96;72.37;102344.97;4996203;28;48036;-71
2022/11/26 03:18:17;;;;;;;;;22.67;18.33;;;;;9.38;72.34;102419.25;4996037;28;45471;-71
2022/11/26 03:20:42;;;;;;;;;19.33;17.33;;;;;9.37;72.46;102420.19;4997325;28;48574;-71
2022/11/26 03:23:08;;;;;;;;;19.67;18.00;;;;;9.06;72.74;102377.94;4998042;28;46377;-70
2022/11/26 03:25:34;;;;;;;;;15.33;15.33;;;;;8.92;72.76;102332.84;4997711;28;45754;-70
2022/11/26 03:27:59;;;;;;;;;16.33;15.00;;;;;9.49;72.24;102431.03;4997728;28;45270;-70
2022/11/26 03:30:25;;;;;;;;;19.00;15.67;;;;;9.56;72.64;102432.34;4996399;28;45378;-70
2022/11/26 03:32:50;;;;;;;;;23.33;16.33;;;;;9.10;72.36;102360.88;4997908;28;45538;-69
2022/11/26 03:35:16;;;;;;;;;24.00;15.67;;;;;9.51;72.64;102432.63;4997413;28;46051;-70
2022/11/26 03:37:41;;;;;;;;;23.67;22.33;;;;;9.48;72.60;102432.81;4979712;28;45341;-71
2022/11/26 03:40:07;;;;;;;;;21.00;16.33;;;;;9.50;72.18;102446.00;4980084;28;45484;-71
2022/11/26 03:42:32;;;;;;;;;21.00;20.00;;;;;9.15;72.02;102382.66;4997593;28;45489;-70
2022/11/26 03:44:58;;;;;;;;;22.67;19.00;;;;;9.41;72.02;102424.41;4996695;28;46532;-71
2022/11/26 03:47:23;;;;;;;;;22.67;17.67;;;;;9.44;72.13;102426.84;4996796;28;45483;-72
2022/11/26 03:49:48;;;;;;;;;21.00;19.00;;;;;9.19;72.29;102392.16;4997691;28;45338;-72
2022/11/26 03:52:14;;;;;;;;;23.33;20.00;;;;;9.25;72.23;102420.97;4997115;28;53612;-69
2022/11/26 03:54:40;;;;;;;;;26.67;20.67;;;;;9.41;72.29;102447.41;4997280;28;46337;-71
2022/11/26 03:57:05;;;;;;;;;18.67;18.33;;;;;9.42;71.98;102449.16;4996101;28;45607;-73
2022/11/26 03:59:30;;;;;;;;;19.00;19.00;;;;;9.39;72.14;102439.53;4997178;28;45453;-72
2022/11/26 04:01:56;;;;;;;;;23.00;21.33;;;;;9.20;71.79;102423.03;4996800;28;59056;-72
2022/11/26 04:04:21;;;;;;;;;18.67;18.67;;;;;8.90;71.81;102367.41;4996951;28;45420;-71
2022/11/26 04:06:46;;;;;;;;;24.00;21.33;;;;;9.20;72.12;102422.19;4997179;28;45338;-71
2022/11/26 04:09:12;;;;;;;;;26.33;25.00;;;;;8.76;72.21;102360.28;4979788;28;45542;-71
2022/11/26 04:11:37;;;;;;;;;23.33;21.33;;;;;8.52;71.75;102311.41;4997014;28;45471;-70
2022/11/26 04:14:03;;;;;;;;;19.67;18.00;;;;;9.06;72.06;102415.94;4997237;28;45767;-71
2022/11/26 04:16:28;;;;;;;;;22.67;19.33;;;;;9.09;72.67;102420.22;4979564;28;46224;-72
2022/11/26 04:18:53;;;;;;;;;24.67;21.33;;;;;9.08;72.36;102414.06;4997398;28;45375;-70
2022/11/26 04:21:19;;;;;;;;;24.00;20.00;;;;;9.26;72.44;102443.06;4997419;28;45162;-71
2022/11/26 04:23:44;;;;;;;;;18.00;18.00;;;;;8.56;71.98;102314.72;4996687;28;49343;-71
2022/11/26 04:26:09;;;;;;;;;22.67;21.00;;;;;8.76;71.82;102336.41;4996782;28;45333;-71
2022/11/26 04:28:34;;;;;;;;;28.67;23.67;;;;;9.35;71.89;102435.38;4996791;28;45329;-71
2022/11/26 04:31:00;;;;;;;;;24.00;21.33;;;;;9.33;72.31;102445.25;4997265;28;45405;-72
2022/11/26 04:33:26;;;;;;;;;18.00;15.67;;;;;9.32;72.23;102445.34;4996714;28;45980;-72
2022/11/26 04:35:52;;;;;;;;;31.67;30.33;;;;;8.99;71.93;102393.38;4996479;28;46417;-70
2022/11/26 04:38:17;;;;;;;;;36.00;31.33;;;;;9.05;72.01;102402.78;4996790;28;45509;-69
2022/11/26 04:40:42;;;;;;;;;36.00;28.67;;;;;9.27;71.75;102447.41;4996548;28;45527;-70
2022/11/26 04:43:08;;;;;;;;;40.00;34.00;;;;;9.19;71.58;102426.66;4978709;28;49713;-70
2022/11/26 04:45:33;;;;;;;;;36.33;30.67;;;;;9.20;71.43;102454.88;4996322;28;45576;-71
2022/11/26 04:47:58;;;;;;;;;39.00;35.00;;;;;9.08;71.63;102431.78;4996832;28;45313;-70
2022/11/26 04:50:24;;;;;;;;;37.00;33.67;;;;;9.20;71.97;102444.28;4996872;28;45253;-74
2022/11/26 04:52:49;;;;;;;;;37.00;33.00;;;;;9.10;71.82;102433.38;4995202;28;48665;-71
2022/11/26 04:55:16;;;;;;;;;40.00;33.33;;;;;9.11;72.21;102429.78;4996516;28;45479;-70
2022/11/26 04:57:42;;;;;;;;;34.33;31.67;;;;;9.15;72.02;102449.00;4998124;28;45326;-73
2022/11/26 05:00:08;;;;;;;;;35.00;31.67;;;;;9.17;72.02;102454.22;4982357;28;45484;-70
2022/11/26 05:02:34;;;;;;;;;38.67;33.33;;;;;9.15;72.12;102436.59;4981971;28;47314;-72
2022/11/26 05:04:59;;;;;;;;;32.33;29.67;;;;;8.99;71.93;102413.72;4998440;28;45322;-70
2022/11/26 05:07:25;;;;;;;;;37.00;31.00;;;;;9.21;71.81;102463.69;4999646;28;45261;-70
2022/11/26 05:09:50;;;;;;;;;40.00;34.67;;;;;9.10;71.84;102443.13;4999785;28;45484;-70
2022/11/26 05:12:15;;;;;;;;;30.33;28.00;;;;;8.83;71.72;102401.41;4999481;28;46207;-70
2022/11/26 05:14:41;;;;;;;;;36.33;31.67;;;;;9.24;72.04;102475.00;4999660;28;45184;-70
2022/11/26 05:17:06;;;;;;;;;32.67;27.67;;;;;9.25;71.88;102466.09;4998326;28;45429;-72
2022/11/26 05:19:32;;;;;;;;;35.33;28.33;;;;;9.25;71.25;102463.44;4999695;28;45200;-70
2022/11/26 05:21:57;;;;;;;;;33.33;27.00;;;;;9.11;71.72;102455.47;4999472;28;46010;-71
2022/11/26 05:24:22;;;;;;;;;24.00;24.00;;;;;9.24;71.81;102469.69;4999460;28;45557;-71
2022/11/26 05:26:48;;;;;;;;;31.33;26.67;;;;;8.68;71.85;102381.13;4981839;28;45755;-70
2022/11/26 05:29:13;;;;;;;;;28.00;25.33;;;;;9.23;72.17;102475.97;4999230;28;49156;-69
2022/11/26 05:31:38;;;;;;;;;24.00;22.67;;;;;9.07;71.89;102459.25;4999447;28;45810;-70
2022/11/26 05:34:04;;;;;;;;;29.00;25.67;;;;;8.72;71.86;102395.91;4999244;28;45637;-72
2022/11/26 05:36:29;;;;;;;;;26.33;24.33;;;;;8.70;71.80;102412.84;4998986;28;47092;-71
2022/11/26 05:38:54;;;;;;;;;18.33;15.00;;;;;8.81;71.44;102431.63;4998075;28;45470;-73
2022/11/26 05:41:20;;;;;;;;;23.67;22.00;;;;;8.47;71.39;102362.03;4999028;28;45542;-71
2022/11/26 05:43:45;;;;;;;;;29.33;23.67;;;;;7.53;71.81;102196.28;4997784;28;45587;-70
2022/11/26 05:46:13;;;;;;;;;32.00;30.67;;;;;8.60;71.68;102396.63;4999414;28;45383;-70
2022/11/26 05:48:39;;;;;;;;;28.33;26.00;;;;;9.16;71.69;102490.53;4999520;28;45510;-70
2022/11/26 05:51:04;;;;;;;;;31.67;27.00;;;;;9.15;71.79;102488.81;4998785;28;46014;-72
2022/11/26 05:53:29;;;;;;;;;28.00;26.33;;;;;8.76;71.45;102423.94;4999146;28;45172;-73
2022/11/26 05:55:55;;;;;;;;;31.33;30.33;;;;;9.24;71.58;102493.59;4999089;28;45551;-73
2022/11/26 05:58:20;;;;;;;;;27.67;24.00;;;;;9.23;71.27;102489.22;4997896;28;45607;-71
2022/11/26 06:00:45;;;;;;;;;35.00;31.33;;;;;8.72;70.79;102406.50;4998789;28;45567;-71
2022/11/26 06:03:11;;;;;;;;;31.67;27.33;;;;;8.64;70.91;102399.97;4998908;28;45257;-70
2022/11/26 06:05:36;;;;;;;;;29.33;27.00;;;;;9.12;70.77;102483.69;4999098;28;45290;-70
2022/11/26 06:08:02;;;;;;;;;25.00;23.67;;;;;9.16;70.57;102482.56;4998829;28;45544;-70
2022/11/26 06:10:27;;;;;;;;;36.00;31.67;;;;;9.07;70.75;102477.81;4998186;28;46095;-70
2022/11/26 06:12:52;;;;;;;;;30.00;26.67;;;;;9.28;70.87;102516.34;4998626;28;45230;-70
2022/11/26 06:15:18;;;;;;;;;33.00;30.33;;;;;8.91;70.62;102480.53;4998859;28;45398;-70
2022/11/26 06:17:43;;;;;;;;;30.00;27.00;;;;;9.29;71.17;102531.31;4981097;28;45618;-71
2022/11/26 06:20:09;;;;;;;;;33.33;27.33;;;;;9.30;70.89;102540.97;4998579;28;46872;-71
2022/11/26 06:22:40;;;;;;;;;32.33;26.00;;;;;9.25;70.89;102542.22;4998700;28;45306;-70
2022/11/26 06:25:07;;;;;;;;;21.67;21.67;;;;;8.69;71.21;102454.41;4998844;28;45551;-70
2022/11/26 06:27:33;;;;;;;;;28.00;26.00;;;;;9.07;70.83;102517.63;4998760;28;45471;-72
2022/11/26 06:29:59;;;;;;;;;29.00;28.33;;;;;9.09;70.95;102513.06;4998291;28;46732;-72
2022/11/26 06:32:24;;;;;;;;;28.00;23.67;;;;;9.20;71.02;102526.53;4998862;28;45460;-71
2022/11/26 06:34:49;;;;;;;;;28.00;26.67;;;;;9.17;70.97;102528.53;4998185;28;50218;-70
2022/11/26 06:37:14;;;;;;;;;30.33;27.00;;;;;9.04;70.87;102509.84;4981030;28;45413;-69
2022/11/26 06:39:40;;;;;;;;;32.67;29.33;;;;;8.97;71.15;102505.81;4998056;28;46485;-70
2022/11/26 06:42:05;;;;;;;;;33.67;28.67;;;;;9.03;71.36;102532.88;4998271;28;45442;-69
2022/11/26 06:44:30;;;;;;;;;22.00;21.67;;;;;8.89;71.12;102521.34;4998291;28;45562;-71
2022/11/26 06:46:56;;;;;;;;;33.33;31.67;;;;;8.57;71.06;102475.47;4980690;28;45516;-70
2022/11/26 06:49:21;;;;;;;;;33.33;30.33;;;;;8.83;71.14;102519.91;4997917;28;46349;-70
2022/11/26 06:51:46;;;;;;;;;30.00;26.67;;;;;8.58;70.98;102488.63;4998130;28;45463;-71
2022/11/26 06:54:12;;;;;;;;;30.00;28.00;;;;;8.58;71.20;102480.69;4998131;28;45447;-70
2022/11/26 06:56:38;;;;;;;;;30.00;27.67;;;;;8.89;71.34;102555.84;4996997;28;45531;-71
2022/11/26 06:59:03;;;;;;;;;35.67;32.67;;;;;9.00;71.28;102561.34;4980078;28;46751;-71
2022/11/26 07:01:29;;;;;;;;;25.67;23.00;;;;;8.74;71.41;102554.91;4998066;28;45369;-71
2022/11/26 07:03:54;;;;;;;;;23.67;21.00;;;;;9.02;71.42;102570.09;4998037;28;45424;-73
2022/11/26 07:06:27;;;;;;;;;26.67;25.00;;;;;8.22;71.40;102434.16;4996767;28;45311;-69
2022/11/26 07:08:55;;;;;;;;;29.00;28.67;;;;;8.80;70.76;102544.78;4997658;28;45672;-70
2022/11/26 07:11:21;;;;;;;;;20.00;15.67;;;;;8.73;70.48;102518.72;4996184;28;45705;-72
2022/11/26 07:13:47;;;;;;;;;34.33;29.67;;;;;8.84;70.22;102549.00;4997903;28;45400;-71
2022/11/26 07:16:13;;;;;;;;;24.67;24.67;;;;;8.82;70.54;102548.25;4996479;28;45239;-71
2022/11/26 07:18:38;;;;;;;;;33.33;28.33;;;;;8.20;70.53;102462.50;4997717;28;45794;-70
2022/11/26 07:21:07;;;;;;;;;30.00;27.67;;;;;8.46;70.34;102515.88;4997720;28;45447;-70
2022/11/26 07:23:32;;;;;;;;;36.33;33.67;;;;;8.64;70.61;102541.34;4998649;28;45233;-71
2022/11/26 07:25:59;;;;;;;;;30.33;28.67;;;;;8.60;70.64;102555.69;4998361;28;45527;-71
2022/11/26 07:28:24;;;;;;;;;30.33;24.67;;;;;8.66;70.14;102538.59;4997941;28;46603;-72
2022/11/26 07:30:50;;;;;;;;;34.67;30.00;;;;;8.89;70.82;102574.41;4998641;28;45372;-72
2022/11/26 07:33:15;;;;;;;;;25.33;22.33;;;;;7.84;71.00;102395.72;4997701;28;45597;-73
2022/11/26 07:35:40;;;;;;;;;25.67;24.67;;;;;8.59;70.85;102529.25;4996756;28;52506;-71
2022/11/26 07:38:06;;;;;;;;;25.67;24.67;;;;;8.67;71.35;102530.56;4995976;28;47433;-71
2022/11/26 07:40:31;;;;;;;;;25.00;22.00;;;;;9.07;71.04;102583.94;4997196;28;49788;-72
2022/11/26 07:42:59;;;;;;;;;9.33;5.33;;;;;9.02;71.48;102578.06;4997556;28;45291;-71
2022/11/26 07:45:24;;;;;;;;;23.33;23.33;;;;;8.93;71.43;102547.59;4997653;28;45566;-72
2022/11/26 07:47:49;;;;;;;;;26.33;23.67;;;;;8.85;71.53;102523.34;4996806;28;45415;-72
2022/11/26 07:50:15;;;;;;;;;29.67;27.33;;;;;8.78;70.71;102506.91;4995797;28;46084;-72
2022/11/26 07:52:40;;;;;;;;;30.33;28.33;;;;;9.15;70.40;102557.81;4997372;28;45602;-72
2022/11/26 07:55:06;;;;;;;;;33.33;30.33;;;;;8.48;70.41;102453.88;4997638;28;45219;-72
2022/11/26 07:57:31;;;;;;;;;27.00;25.33;;;;;9.08;70.02;102549.38;4996896;28;47284;-70
2022/11/26 07:59:57;;;;;;;;;24.33;23.67;;;;;8.47;70.10;102435.41;4997153;28;45416;-70
2022/11/26 08:02:22;;;;;;;;;22.33;21.33;;;;;8.68;70.11;102487.19;4997405;28;45475;-71
2022/11/26 08:04:47;;;;;;;;;23.00;21.00;;;;;8.89;69.47;102545.22;4997238;28;45454;-70
2022/11/26 08:07:12;;;;;;;;;24.00;24.00;;;;;7.23;69.71;102250.94;4996687;28;51589;-72
2022/11/26 08:09:38;;;;;;;;;26.33;24.33;;;;;8.86;70.02;102534.78;4996978;28;45434;-71
2022/11/26 08:12:03;;;;;;;;;27.33;23.67;;;;;8.97;69.68;102572.16;4995767;28;45381;-74
2022/11/26 08:14:29;;;;;;;;;28.33;23.00;;;;;8.93;69.67;102570.63;4997676;28;45527;-72
2022/11/26 08:16:54;;;;;;;;;24.67;22.33;;;;;8.64;70.23;102528.09;4997020;28;45727;-71
2022/11/26 08:19:19;;;;;;;;;27.33;24.67;;;;;9.07;70.08;102573.34;4996926;28;45214;-72
2022/11/26 08:21:45;;;;;;;;;15.33;15.33;;;;;8.14;69.87;102412.50;4996919;28;45781;-72
2022/11/26 08:24:16;;;;;;;;;23.67;23.33;;;;;9.12;70.24;102573.91;4996672;28;46298;-72
2022/11/26 08:26:42;;;;;;;;;23.33;22.33;;;;;9.25;69.72;102580.22;4996642;28;46641;-72
2022/11/26 08:29:08;;;;;;;;;25.00;23.67;;;;;8.76;69.67;102482.28;4996430;28;45266;-70
2022/11/26 08:31:34;;;;;;;;;23.00;21.00;;;;;9.30;69.59;102569.31;4996778;28;45472;-69
2022/11/26 08:34:01;;;;;;;;;23.67;22.33;;;;;9.37;69.35;102578.63;5000727;28;45383;-71
2022/11/26 08:36:27;;;;;;;;;24.67;21.67;;;;;9.53;68.97;102567.94;5000075;28;45317;-72
2022/11/26 08:38:53;;;;;;;;;24.67;23.67;;;;;9.66;69.21;102579.53;4982043;28;45354;-71
2022/11/26 08:41:18;;;;;;;;;22.00;21.00;;;;;9.74;68.96;102570.13;5000455;28;45433;-73
2022/11/26 08:43:44;;;;;;;;;27.00;22.33;;;;;9.40;69.03;102494.34;5000822;28;45468;-70
2022/11/26 08:46:09;;;;;;;;;26.00;24.67;;;;;9.90;68.54;102570.06;4998620;28;46307;-72
2022/11/26 08:48:35;;;;;;;;;27.00;22.33;;;;;10.00;68.38;102573.84;5000512;28;45978;-71
2022/11/26 08:51:07;;;;;;;;;23.67;21.00;;;;;9.66;68.22;102500.72;5000862;28;45448;-73
2022/11/26 08:53:33;;;;;;;;;27.00;23.33;;;;;9.97;68.16;102547.47;4999485;28;45547;-72
2022/11/26 08:56:17;;;;;;;;;30.33;28.33;;;;;10.13;68.13;102576.59;4982706;28;48059;-72
2022/11/26 08:58:47;;;;;;;;;26.33;22.00;;;;;10.14;67.88;102577.44;4998472;28;45906;-71
2022/11/26 09:01:23;;;;;;;;;27.33;24.33;;;;;10.09;67.79;102579.53;4999787;28;45555;-70
2022/11/26 09:03:50;;;;;;;;;29.67;25.67;;;;;9.85;67.61;102553.56;4999697;28;45554;-72
2022/11/26 09:06:17;;;;;;;;;25.33;23.00;;;;;8.90;67.91;102415.16;4999387;28;45831;-73
2022/11/26 09:11:34;;;;;;;;;30.00;26.33;;;;;8.53;68.43;102358.16;4979739;28;45503;-73
2022/11/26 09:13:59;;;;;;;;;31.33;26.00;;;;;9.78;68.82;102570.81;4999874;28;45457;-70
2022/11/26 09:16:26;;;;;;;;;20.00;17.33;;;;;9.62;69.30;102548.81;4999385;28;45676;-70
2022/11/26 09:18:51;;;;;;;;;36.33;30.67;;;;;9.69;68.97;102555.44;4981711;28;45649;-72
2022/11/26 09:21:18;;;;;;;;;26.67;25.33;;;;;9.38;68.86;102500.69;4999195;28;45489;-71
2022/11/26 09:23:43;;;;;;;;;25.33;24.00;;;;;9.02;68.57;102418.88;4999878;28;45255;-70
2022/11/26 09:26:08;;;;;;;;;28.67;27.33;;;;;9.38;68.76;102476.81;4999004;28;46016;-71
2022/11/26 09:28:34;;;;;;;;;30.67;27.67;;;;;9.33;68.43;102460.31;4999116;28;45341;-73
2022/11/26 09:31:00;;;;;;;;;33.00;28.33;;;;;9.76;68.87;102536.38;4999313;28;45290;-74
2022/11/26 09:33:26;;;;;;;;;28.00;25.33;;;;;8.85;68.64;102374.81;4999587;28;45310;-72
2022/11/26 09:35:51;;;;;;;;;32.67;29.33;;;;;9.45;69.05;102465.72;4981554;28;48423;-74
2022/11/26 09:38:17;;;;;;;;;31.33;24.33;;;;;9.29;68.66;102445.53;4999626;28;45445;-72
2022/11/26 09:40:52;;;;;;;;;32.00;27.67;;;;;9.64;69.14;102504.41;4999485;28;45301;-75
2022/11/26 09:43:36;;;;;;;;;31.67;30.00;;;;;8.90;69.63;102398.38;4999422;28;45303;-71
2022/11/26 09:46:02;;;;;;;;;29.00;29.00;;;;;10.13;69.24;102599.66;4999031;28;46321;-72
2022/11/26 09:48:31;;;;;;;;;38.67;32.00;;;;;9.20;69.35;102416.88;4998951;28;45479;-71
2022/11/26 09:51:05;;;;;;;;;32.00;30.00;;;;;9.29;69.24;102432.25;4998884;28;45377;-70
2022/11/26 09:53:35;;;;;;;;;33.33;28.33;;;;;10.22;69.53;102577.88;4999048;28;45361;-72
2022/11/26 09:56:01;;;;;;;;;31.00;28.33;;;;;9.64;68.76;102472.56;4998741;28;46084;-73
2022/11/26 09:58:43;;;;;;;;;22.67;22.00;;;;;8.52;69.04;102293.69;4998772;28;45579;-73
2022/11/26 10:01:21;;;;;;;;;29.00;25.33;;;;;10.12;69.09;102550.97;4999027;28;45322;-73
2022/11/26 10:03:46;;;;;;;;;28.33;27.00;;;;;10.28;69.31;102569.50;5000619;28;45358;-72
2022/11/26 10:06:31;;;;;;;;;30.33;29.67;;;;;10.31;69.12;102562.19;4997636;28;48042;-72
2022/11/26 10:09:17;;;;;;;;;32.33;27.33;;;;;10.16;69.78;102546.31;4998451;28;45255;-72
2022/11/26 10:12:10;;;;;;;;;27.67;25.33;;;;;10.27;69.79;102571.31;4998555;28;45392;-70
2022/11/26 10:14:41;;;;;;;;;29.33;25.33;;;;;9.72;69.64;102502.97;4999278;28;45571;-72
2022/11/26 10:17:30;;;;;;;;;24.67;23.67;;;;;10.27;70.08;102576.63;4998398;28;45479;-71
2022/11/26 10:20:20;;;;;;;;;34.00;28.00;;;;;10.33;69.79;102565.59;4998225;28;45428;-73
2022/11/26 10:22:57;;;;;;;;;25.00;24.00;;;;;10.34;70.06;102561.13;4998536;28;45264;-71
2022/11/26 10:25:27;;;;;;;;;30.33;29.33;;;;;10.23;69.65;102540.56;4998834;28;45174;-71
2022/11/26 10:27:55;;;;;;;;;34.67;30.33;;;;;10.41;69.56;102577.53;4980969;28;47074;-72
2022/11/26 10:30:22;;;;;;;;;36.00;32.00;;;;;10.49;69.88;102564.59;4998389;28;45440;-72
2022/11/26 10:32:49;;;;;;;;;30.67;29.67;;;;;10.56;70.04;102550.81;4997045;28;45299;-71
2022/11/26 10:35:21;;;;;;;;;31.67;31.33;;;;;10.38;69.36;102500.63;4996984;28;45540;-71
2022/11/26 10:37:47;;;;;;;;;36.33;30.33;;;;;10.32;69.80;102499.22;4998286;28;45357;-73
2022/11/26 10:40:20;;;;;;;;;34.33;29.67;;;;;10.55;70.01;102541.13;4998506;28;45547;-72
2022/11/26 10:42:55;;;;;;;;;35.33;29.33;;;;;9.85;70.01;102401.28;4999189;28;45550;-73
2022/11/26 10:45:24;;;;;;;;;34.67;31.33;;;;;10.64;69.27;102524.56;4999128;28;45389;-73
2022/11/26 10:47:49;;;;;;;;;37.33;32.00;;;;;10.27;69.77;102472.94;4981108;28;46324;-70
2022/11/26 10:50:25;;;;;;;;;34.67;32.00;;;;;10.57;70.06;102533.03;4980788;28;45384;-74
2022/11/26 10:52:52;;;;;;;;;37.00;32.00;;;;;9.88;70.00;102420.53;4980994;28;45400;-71
2022/11/26 10:55:23;;;;;;;;;33.33;31.00;;;;;10.55;70.15;102538.47;4997879;28;45377;-74
2022/11/26 10:58:19;;;;;;;;;42.33;36.67;;;;;10.54;70.15;102544.72;4998455;28;45659;-72
2022/11/26 11:00:55;;;;;;;;;36.67;34.00;;;;;9.91;69.90;102446.91;4996107;28;45517;-74
2022/11/26 11:03:24;;;;;;;;;38.33;33.33;;;;;10.41;70.11;102530.53;4980859;28;45364;-71
2022/11/26 11:05:50;;;;;;;;;36.33;33.33;;;;;9.85;70.87;102447.28;4999078;28;45556;-71
2022/11/26 11:08:30;;;;;;;;;39.33;33.67;;;;;9.61;70.27;102403.69;4980086;28;48049;-73
2022/11/26 11:10:58;;;;;;;;;36.00;32.33;;;;;10.24;70.38;102515.69;4997457;28;45488;-73
2022/11/26 11:13:39;;;;;;;;;34.67;32.00;;;;;10.54;71.06;102552.72;4996456;28;45362;-71
2022/11/26 11:16:05;;;;;;;;;39.33;34.00;;;;;10.44;70.48;102535.66;4996672;28;45553;-72
2022/11/26 11:18:33;;;;;;;;;32.33;31.33;;;;;10.24;70.56;102486.44;4979845;28;45631;-74
2022/11/26 11:21:02;;;;;;;;;28.33;27.33;;;;;9.99;70.44;102430.44;4997792;28;45405;-71